KVGT/VGT METAR and TAF weather

Enter ICAO airport designator
Station Type Date Time Source
KVGT METAR 2019/12/09 21:53 UTC NOAA

KVGT 092153Z 34007KT 10SM CLR 17/M01 A3004 RMK AO2 SLP184 T01721006


Station Type Date Time Source
KVGT Decoded METAR 2019/12/09 21:53 UTC NOAA

NORTH LAS VEGAS, NV, United States (KVGT) 36-12N 115-11W
Dec 09, 2019 - 04:53 PM EST / 2019.12.09 2153 UTC
Wind: from the NNW (340 degrees) at 8 MPH (7 KT):0
Visibility: 10 mile(s):0
Sky conditions: clear
Temperature: 63.0 F (17.2 C)
Dew Point: 30.9 F (-0.6 C)
Relative Humidity: 29%
Pressure (altimeter): 30.04 in. Hg (1017 hPa)
ob: KVGT 092153Z 34007KT 10SM CLR 17/M01 A3004 RMK AO2 SLP184 T01721006
cycle: 22

Station Type Date Time Source
KVGT TAF 2019/12/09 18:36 UTC NOAA

TAF KVGT 091733Z 0918/1018 36010G16KT P6SM SCT200
FM100300 33006KT P6SM SKC

Example: see airport list